• Join FlightAware (Why Join?)
  • Login
  • US Flag 
05:13PM EDT


 

Airport Tracker/Info


-or-


 

Live Flight TrackerFlight Track Log ✈ UAL4086 ✈ 17-Apr-2013 ✈ KCVG - KIAH

Flight Track Log - Related Links

Times and Time Zones

All times are in EDT time to prevent confusion due to time zone crossing. See the UAL4086 flight status page for this flight to view local times or setup timezone preferences in your user account.

Time Position Orientation Groundspeed Altitude Reporting Facility
EDT Latitude Longitude Course Direction KTS MPH feet Rate Location/Type
06:24AM 39.0667 -84.6667 208° Southwest 154 177 1,600  Level Cincinnati TRACON
06:25AM 39.1000 -84.6667 360° North 192 221 2,800 2,400 Climbing Cincinnati TRACON
06:25AM 39.1000 -84.7333 270° West 232 267 5,200 2,760 Climbing Cincinnati TRACON
06:27AM 38.7575 -84.7716 213° Southwest  Level FlightAware Approximate
06:27AM 39.0167 -84.7667 197° South 267 307 8,400  Level Cincinnati TRACON
06:28AM 38.6743 -84.8394 208° Southwest  Level FlightAware Approximate
06:29AM 38.5869 -84.8977 208° Southwest  Level FlightAware Approximate
06:29AM 38.8606 -84.6869 158° South 317 365 12,800  Level Indianapolis Center
06:30AM 38.7850 -84.6097 141° Southeast 343 395 15,200 2,280 Climbing Indianapolis Center
06:31AM 38.7081 -84.5314 142° Southeast 344 396 17,500 1,980 Climbing Indianapolis Center
06:32AM 38.6364 -84.4547 140° Southeast 341 392 19,300 1,800 Climbing Indianapolis Center
06:33AM 38.5444 -84.4244 166° South 340 391 21,200 1,800 Climbing Indianapolis Center
06:34AM 38.4525 -84.4475 191° South 336 387 23,000 1,740 Climbing Indianapolis Center
06:35AM 38.3747 -84.5092 212° Southwest 331 381 24,800 1,740 Climbing Indianapolis Center
06:36AM 38.3069 -84.5881 222° Southwest 329 379 26,600 1,740 Climbing Indianapolis Center
06:37AM 38.2511 -84.6792 232° Southwest 328 377 28,400 1,740 Climbing Indianapolis Center
06:38AM 38.1989 -84.7717 234° Southwest 325 374 30,200 1,620 Climbing Indianapolis Center
06:39AM 38.1375 -84.8814 235° Southwest 328 377 31,700 1,200 Climbing Indianapolis Center
06:40AM 38.0906 -84.9850 240° Southwest 339 390 32,700 1,020 Climbing Indianapolis Center
06:41AM 38.0400 -85.0917 239° Southwest 352 405 33,800 1,020 Climbing Indianapolis Center
06:42AM 37.9814 -85.1933 234° Southwest 358 412 34,800 1,020 Climbing Indianapolis Center
06:43AM 37.9214 -85.3006 235° Southwest 361 415 35,900 540 Climbing Indianapolis Center
06:44AM 37.8594 -85.4069 234° Southwest 371 427 36,000  Climbing Indianapolis Center
06:45AM 37.7986 -85.5139 234° Southwest 387 445 36,000  Level Indianapolis Center
06:46AM 37.7239 -85.6431 234° Southwest 422 486 36,000  Level Indianapolis Center
06:47AM 37.6511 -85.7672 234° Southwest 436 502 36,000  Level Indianapolis Center
06:48AM 37.5789 -85.8886 233° Southwest 432 497 36,000  Level Indianapolis Center
06:49AM 37.5158 -85.9994 234° Southwest 427 491 36,000  Level Indianapolis Center
06:50AM 37.4447 -86.1200 233° Southwest 420 483 36,000  Level Indianapolis Center
06:51AM 37.3764 -86.2353 233° Southwest 419 482 36,000  Level Indianapolis Center
06:51AM 37.3383 -86.2978 233° Southwest 429 494 36,000  Level Memphis Center
06:52AM 37.2714 -86.4133 234° Southwest 424 488 36,000  Level Memphis Center
06:53AM 37.2019 -86.5314 234° Southwest 424 488 36,000  Level Memphis Center
06:54AM 37.1367 -86.6439 234° Southwest 419 482 36,000  Level Memphis Center
06:55AM 37.0692 -86.7536 232° Southwest 408 470 36,000  Level Memphis Center
06:56AM 37.0014 -86.8658 233° Southwest 402 463 36,000  Level Memphis Center
06:57AM 36.9378 -86.9750 234° Southwest 402 463 36,000  Level Memphis Center
06:58AM 36.8700 -87.0842 232° Southwest 402 463 36,000  Level Memphis Center
06:59AM 36.8019 -87.1958 233° Southwest 402 463 36,000  Level Memphis Center
07:00AM 36.7439 -87.2939 234° Southwest 402 463 36,000  Level Memphis Center
07:01AM 36.6778 -87.4025 233° Southwest 402 463 36,000  Level Memphis Center
07:02AM 36.6094 -87.5108 232° Southwest 402 463 36,000  Level Memphis Center
07:03AM 36.5453 -87.6164 233° Southwest 402 463 36,000  Level Memphis Center
07:04AM 36.4767 -87.7272 232° Southwest 402 463 36,000  Level Memphis Center
07:05AM 36.4122 -87.8350 233° Southwest 402 463 36,000  Level Memphis Center
07:06AM 36.3475 -87.9400 233° Southwest 397 457 36,000  Level Memphis Center
07:07AM 36.2808 -88.0450 232° Southwest 394 453 36,000  Level Memphis Center
07:08AM 36.2058 -88.1603 231° Southwest 394 453 36,000  Level Memphis Center
07:09AM 36.1408 -88.2650 232° Southwest 394 453 36,000  Level Memphis Center
07:10AM 36.0717 -88.3719 231° Southwest 399 459 36,000  Level Memphis Center
07:11AM 36.0067 -88.4789 233° Southwest 399 459 36,000  Level Memphis Center
07:12AM 35.9394 -88.5828 231° Southwest 399 459 36,000  Level Memphis Center
07:13AM 35.8700 -88.6894 231° Southwest 399 459 36,000  Level Memphis Center
07:14AM 35.8025 -88.7931 231° Southwest 399 459 36,000  Level Memphis Center
07:15AM 35.7369 -88.8967 232° Southwest 399 459 36,000  Level Memphis Center
07:16AM 35.6717 -89.0053 234° Southwest 399 459 36,000  Level Memphis Center
07:17AM 35.6058 -89.1083 232° Southwest 394 453 36,000  Level Memphis Center
07:18AM 35.5381 -89.2114 231° Southwest 394 453 36,000  Level Memphis Center
07:19AM 35.4744 -89.3144 233° Southwest 394 453 36,000  Level Memphis Center
07:20AM 35.4125 -89.4067 231° Southwest 394 453 36,000  Level Memphis Center
07:21AM 35.3444 -89.5119 232° Southwest 399 459 36,000  Level Memphis Center
07:22AM 35.2806 -89.6144 233° Southwest 399 459 36,000  Level Memphis Center
07:23AM 35.2122 -89.7192 231° Southwest 399 459 36,000  Level Memphis Center
07:24AM 35.1458 -89.8239 232° Southwest 399 459 36,000  Level Memphis Center
07:25AM 35.0797 -89.9283 232° Southwest 399 459 36,000  Level Memphis Center
07:26AM 35.0089 -90.0300 230° Southwest 399 459 36,000  Level Memphis Center
07:27AM 34.9425 -90.1317 231° Southwest 399 459 36,000  Level Memphis Center
07:28AM 34.8739 -90.2381 232° Southwest 399 459 36,000  Level Memphis Center
07:29AM 34.8050 -90.3369 230° Southwest 399 459 36,000  Level Memphis Center
07:30AM 34.7361 -90.4381 230° Southwest 399 459 36,000  Level Memphis Center
07:31AM 34.6672 -90.5389 230° Southwest 399 459 36,000  Level Memphis Center
07:32AM 34.6022 -90.6372 231° Southwest 399 459 36,000 120 Level Memphis Center
07:33AM 34.5331 -90.7481 233° Southwest 386 444 36,300 480 Climbing Memphis Center
07:34AM 34.4722 -90.8458 233° Southwest 386 444 37,000 300 Climbing Memphis Center
07:35AM 34.4114 -90.9489 234° Southwest 379 436 37,000  Level Memphis Center
07:36AM 34.3503 -91.0539 235° Southwest 384 442 37,000  Level Memphis Center
07:37AM 34.2850 -91.1617 234° Southwest 384 442 37,000  Level Memphis Center
07:38AM 34.2153 -91.2614 230° Southwest 384 442 37,000  Level Memphis Center
07:39AM 34.1253 -91.3231 210° Southwest 384 442 37,000  Level Memphis Center
07:40AM 34.0308 -91.3847 208° Southwest 389 448 37,000  Level Memphis Center
07:41AM 33.9364 -91.4489 209° Southwest 384 442 37,000  Level Memphis Center
07:44AM 33.7392 -91.5742 208° Southwest 373 429 37,000  Level Fort Worth Center
07:45AM 33.6397 -91.6381 208° Southwest 387 445 37,000  Level Fort Worth Center
07:46AM 33.5444 -91.6967 207° Southwest 387 445 37,000  Level Fort Worth Center
07:47AM 33.4492 -91.7600 209° Southwest 393 452 37,000 -600 Level Fort Worth Center
07:48AM 33.3539 -91.8208 208° Southwest 393 452 35,900 -1,020 Descending Fort Worth Center
07:49AM 33.2664 -91.8736 207° Southwest 398 458 35,000 -900 Descending Fort Worth Center
07:50AM 33.1692 -91.9367 209° Southwest 398 458 34,200 -540 Descending Fort Worth Center
07:51AM 33.0717 -91.9972 207° Southwest 398 458 34,000 -120 Descending Fort Worth Center
07:52AM 32.9678 -92.0606 207° Southwest 403 464 34,000  Level Fort Worth Center
07:54AM 32.7047 -92.2236 208° Southwest 400 460 34,000  Level Houston Center
07:55AM 32.6061 -92.2858 208° Southwest 401 461 34,000  Level Houston Center
07:56AM 32.5058 -92.3478 208° Southwest 405 466 34,000  Level Houston Center
07:57AM 32.4069 -92.4094 208° Southwest 404 465 34,000  Level Houston Center
07:58AM 32.3083 -92.4708 208° Southwest 402 463 34,000  Level Houston Center
07:59AM 32.2089 -92.5333 208° Southwest 405 466 34,000  Level Houston Center
08:00AM 32.1086 -92.5939 207° Southwest 405 466 34,000  Level Houston Center
08:01AM 32.0097 -92.6553 208° Southwest 404 465 34,000  Level Houston Center
08:02AM 31.9178 -92.7311 215° Southwest 406 467 34,000  Level Houston Center
08:03AM 31.8153 -92.8325 220° Southwest 405 466 34,000  Level Houston Center
08:04AM 31.7278 -92.9164 219° Southwest 407 468 34,000  Level Houston Center
08:05AM 31.6411 -93.0014 220° Southwest 406 467 34,000  Level Houston Center
08:06AM 31.5544 -93.0850 219° Southwest 406 467 34,000  Level Houston Center
08:07AM 31.4667 -93.1658 218° Southwest 404 465 34,000  Level Houston Center
08:08AM 31.3800 -93.2497 220° Southwest 407 468 34,000  Level Houston Center
08:09AM 31.2906 -93.3344 219° Southwest 413 475 34,000  Level Houston Center
08:10AM 31.1839 -93.4367 219° Southwest 415 478 34,000 -300 Level Houston Center
08:11AM 31.0933 -93.5217 219° Southwest 418 481 33,500 -1,260 Descending Houston Center
08:12AM 31.0006 -93.6089 219° Southwest 409 471 31,500 -2,340 Descending Houston Center
08:13AM 30.9097 -93.6967 220° Southwest 418 481 28,800 -2,520 Descending Houston Center
08:14AM 30.8119 -93.7878 219° Southwest 439 505 26,400 -2,400 Descending Houston Center
08:16AM 30.7175 -93.8778 219° Southwest 439 505 24,000 -2,280 Descending Houston Center
08:17AM 30.6267 -93.9625 219° Southwest 423 487 21,800 -2,220 Descending Houston Center
08:18AM 30.5347 -94.0492 219° Southwest 422 486 19,500 -2,340 Descending Houston Center
08:18AM 30.4828 -94.0989 220° Southwest 415 478 18,300 -2,040 Descending Houston Center
08:19AM 30.4458 -94.1325 218° Southwest 414 476 17,400 -2,280 Descending Houston Center
08:19AM 30.3925 -94.1814 218° Southwest 397 457 16,000 -2,220 Descending Houston Center
08:20AM 30.3603 -94.2119 219° Southwest 399 459 15,200 -2,220 Descending Houston Center
08:20AM 30.3175 -94.2519 219° Southwest 387 445 14,000 -2,160 Descending Houston Center
08:21AM 30.2756 -94.2900 218° Southwest 390 449 13,000 -1,920 Descending Houston Center
08:21AM 30.2308 -94.3311 218° Southwest 382 440 12,100 -1,020 Descending Houston Center
08:22AM 30.2028 -94.3739 233° Southwest 371 427 12,000 -660 Descending Houston Center
08:22AM 30.1847 -94.4411 253° West 371 427 11,400 -1,080 Descending Houston Center
08:23AM 30.1764 -94.4856 258° West 370 426 10,900 -1,380 Descending Houston Center
08:23AM 30.1633 -94.5650 259° West 377 434 10,000 -900 Descending Houston Center
08:24AM 30.1531 -94.6267 259° West 374 430 10,000  Level Houston Center
08:24AM 30.1458 -94.6664 258° West 360 414 10,000  Level Houston Center
08:25AM 30.1328 -94.7394 258° West 364 419 10,000  Level Houston Center
08:25AM 30.1222 -94.7925 257° West 344 396 10,000 -420 Level Houston Center
08:26AM 30.1161 -94.8367 261° West 305 351 9,600 -1,200 Descending Houston Center
08:26AM 30.1075 -94.8792 257° West 260 299 8,800 -1,800 Descending Houston Center
08:27AM 30.1044 -94.9203 265° West 269 310 7,800 -1,860 Descending Houston Center
08:27AM 30.1044 -94.9592 270° West 262 302 7,100 -1,620 Descending Houston Center
08:28AM 30.1058 -95.0069 272° West 270 311 6,200 -1,080 Descending Houston Center
08:28AM 30.1050 -95.0533 269° West 277 319 5,900 -240 Descending Houston Center
08:29AM 30.1058 -95.0958 271° West 276 318 6,000 60 Climbing Houston Center
08:29AM 30.1056 -95.1497 270° West 280 322 6,000  Level Houston Center
08:30AM 30.1067 -95.2039 271° West 281 323 6,000  Level Houston Center
08:30AM 30.1061 -95.2247 268° West 280 322 6,000  Level Houston Center
08:31AM 30.1072 -95.2925 271° West 279 321 6,000  Level Houston Center
08:31AM 30.1053 -95.3286 266° West 283 326 6,000  Level Houston Center
08:32AM 30.1064 -95.3814 271° West 278 320 6,000  Level Houston Center
08:32AM 30.1072 -95.4200 271° West 281 323 6,000  Level Houston Center
08:33AM 30.1067 -95.4717 269° West 282 325 6,000  Level Houston Center
08:33AM 30.1075 -95.5142 271° West 281 323 6,000 -420 Level Houston Center
08:34AM 30.1078 -95.5611 270° West 280 322 5,600 -1,200 Descending Houston Center
08:34AM 30.1053 -95.6086 267° West 270 311 4,700 -1,500 Descending Houston Center
08:35AM 30.1072 -95.6458 273° West 268 308 4,100 -1,320 Descending Houston Center
08:35AM 30.0906 -95.6781 239° Southwest 238 274 3,500 -1,080 Descending Houston Center
08:36AM 30.0617 -95.6844 191° South 240 276 3,000 -540 Descending Houston Center
08:36AM 30.0306 -95.6875 185° South 231 266 3,000  Level Houston Center
08:37AM 30.0067 -95.6492 126° Southeast 240 276 3,000  Level Houston Center
08:37AM 30.0072 -95.6156 89° East 244 281 3,000  Level Houston Center
08:38AM 30.0069 -95.5700 90° East 247 284 3,000  Level Houston Center
08:38AM 30.0053 -95.5458 95° East 242 278 3,000 -600 Level Houston Center
08:39AM 30.0072 -95.4944 87° East 242 278 2,400 -840 Descending Houston Center